Time;durP1;ratioP1;P1;durP2;ratioP2;P2;SDS_P1;SDS_P2;PMS_P1;PMS_P2;Temp;Humidity;BMP_temperature;BMP_pressure;BME280_temperature;BME280_humidity;BME280_pressure;Samples;Min_cycle;Max_cycle;Signal;HPM_P1;HPM_P2
2021/06/05 00:04:47;;;;;;;15.1;10.6;;;;;;;15.56;89.04102;99069.65;;;;
2021/06/05 00:14:46;;;;;;;14.3;11.8;;;;;;;15.5;91.53027;99074.48;;;;
2021/06/05 00:24:45;;;;;;;21;14.7;;;;;;;15.3;94.36133;99077.91;;;;
2021/06/05 00:34:44;;;;;;;15.9;11.7;;;;;;;15.36;93.21484;99073.08;;;;
2021/06/05 00:44:43;;;;;;;13.1;11.1;;;;;;;15.36;94.54297;99070.36;;;;
2021/06/05 00:54:43;;;;;;;15;10.6;;;;;;;15.42;92.87695;99064.42;;;;
2021/06/05 01:04:43;;;;;;;14.8;10.3;;;;;;;15.34;94.27637;99067.19;;;;
2021/06/05 01:14:41;;;;;;;18.3;9.7;;;;;;;15.34;95.05957;99037.31;;;;
2021/06/05 01:24:40;;;;;;;15.2;9.3;;;;;;;15.31;96.66406;99022.45;;;;
2021/06/05 01:34:39;;;;;;;11.8;7.5;;;;;;;15.25;99.72363;99015.63;;;;
2021/06/05 01:44:38;;;;;;;10.4;8.1;;;;;;;15.1;100;99005.3;;;;
2021/06/05 01:54:37;;;;;;;11.9;7.1;;;;;;;15.19;100;99014.22;;;;
2021/06/05 02:04:36;;;;;;;11.3;7.5;;;;;;;14.95;100;99019.44;;;;
2021/06/05 02:14:36;;;;;;;11.7;6.3;;;;;;;15.15;99.84668;99009.77;;;;
2021/06/05 02:24:35;;;;;;;12.5;10.8;;;;;;;14.85;100;99014.38;;;;
2021/06/05 02:34:34;;;;;;;14;10.3;;;;;;;14.87;100;99017.55;;;;
2021/06/05 02:44:33;;;;;;;14.5;9.2;;;;;;;14.78;100;99025.73;;;;
2021/06/05 02:54:32;;;;;;;14;10.1;;;;;;;14.98;100;99005.22;;;;
2021/06/05 03:04:31;;;;;;;12.3;9.6;;;;;;;15.04;99.36914;99004.7;;;;
2021/06/05 03:14:30;;;;;;;15.1;10.1;;;;;;;14.94;100;99026.78;;;;
2021/06/05 03:24:29;;;;;;;13.4;10.4;;;;;;;14.97;100;99009.04;;;;
2021/06/05 03:34:29;;;;;;;14.7;9.1;;;;;;;15.17;99.64844;99030.02;;;;
2021/06/05 03:44:28;;;;;;;13.2;8.9;;;;;;;15.33;98.63086;99063.67;;;;
2021/06/05 03:54:27;;;;;;;16.4;12.2;;;;;;;15.33;100;99079.97;;;;
2021/06/05 04:04:26;;;;;;;12.8;9.6;;;;;;;15.34;100;99091.63;;;;
2021/06/05 04:14:25;;;;;;;13.2;9.8;;;;;;;15.56;100;99091.38;;;;
2021/06/05 04:24:24;;;;;;;13.8;9.7;;;;;;;15.62;100;99105.59;;;;
2021/06/05 04:34:24;;;;;;;11.4;9.9;;;;;;;15.85;100;99126.73;;;;
2021/06/05 04:44:23;;;;;;;36.8;30.1;;;;;;;15.91;100;99113.73;;;;
2021/06/05 04:54:22;;;;;;;11.9;10;;;;;;;16.04;100;99096.36;;;;
2021/06/05 05:04:22;;;;;;;13.4;8.3;;;;;;;16.13;100;99088.95;;;;
2021/06/05 05:14:21;;;;;;;9.4;6.2;;;;;;;16.02;100;99104.06;;;;
2021/06/05 05:24:20;;;;;;;9.3;6.9;;;;;;;16.11;100;99146.38;;;;
2021/06/05 05:34:20;;;;;;;12;8.2;;;;;;;15.77;100;99143.87;;;;
2021/06/05 05:44:19;;;;;;;12.2;7.9;;;;;;;15.65;100;99130.2;;;;
2021/06/05 05:54:18;;;;;;;9.5;7.6;;;;;;;15.47;100;99088.7;;;;
2021/06/05 06:04:17;;;;;;;9.9;7.5;;;;;;;15.41;100;99094.64;;;;
2021/06/05 06:14:17;;;;;;;8.1;6.5;;;;;;;15.48;100;99065.05;;;;
2021/06/05 06:24:17;;;;;;;23.7;8.2;;;;;;;15.3;100;99080.63;;;;
2021/06/05 06:34:16;;;;;;;16.1;7.6;;;;;;;14.89;100;99107.59;;;;
2021/06/05 06:44:15;;;;;;;14.6;7.4;;;;;;;15.03;100;99075.59;;;;
2021/06/05 06:54:14;;;;;;;10.6;7.8;;;;;;;15.16;100;99057.52;;;;
2021/06/05 07:04:13;;;;;;;10.2;7;;;;;;;15.75;100;99037.42;;;;
2021/06/05 07:14:12;;;;;;;9.5;6.4;;;;;;;16.38;100;99038.97;;;;
2021/06/05 07:24:12;;;;;;;10.6;5.9;;;;;;;16.82;100;99066.59;;;;
2021/06/05 07:34:11;;;;;;;9.3;6.2;;;;;;;17.12;100;99059.83;;;;
2021/06/05 07:44:11;;;;;;;10.9;5.6;;;;;;;17.51;100;99064.63;;;;
2021/06/05 07:54:10;;;;;;;8.9;5.5;;;;;;;17.37;100;99047.02;;;;
2021/06/05 08:04:10;;;;;;;8.8;6.5;;;;;;;17.77;100;99047.16;;;;
2021/06/05 08:14:09;;;;;;;8.6;5.7;;;;;;;18.25;100;99032.59;;;;
2021/06/05 08:24:09;;;;;;;9.8;4.9;;;;;;;18.04;100;99010.95;;;;
2021/06/05 08:34:09;;;;;;;8.4;5.5;;;;;;;18.48;100;99009.05;;;;
2021/06/05 08:44:09;;;;;;;6;4.4;;;;;;;18.14;100;98996.02;;;;
2021/06/05 08:54:18;;;;;;;5.4;4.1;;;;;;;18.1;100;98983.08;;;;
2021/06/05 09:04:09;;;;;;;7.1;4.1;;;;;;;19.65;100;98982.71;;;;
2021/06/05 09:14:08;;;;;;;6.6;3.4;;;;;;;20.1;100;98966.47;;;;
2021/06/05 09:24:19;;;;;;;6;3.3;;;;;;;20.68;99.5918;98969.16;;;;
2021/06/05 09:34:14;;;;;;;5.9;3.7;;;;;;;21.16;98.87012;98959.41;;;;
2021/06/05 09:44:14;;;;;;;5.2;3.5;;;;;;;21.83;95.15137;98957.59;;;;
2021/06/05 09:54:11;;;;;;;8;3.5;;;;;;;21.74;96.70898;98948.87;;;;
2021/06/05 10:14:08;;;;;;;7.2;4.2;;;;;;;21.77;96.39258;98958.3;;;;
2021/06/05 10:24:08;;;;;;;5.4;3.1;;;;;;;22.19;93.7627;98952.57;;;;
2021/06/05 10:34:09;;;;;;;5.6;2.2;;;;;;;22.28;93.87598;98951.13;;;;
2021/06/05 10:44:09;;;;;;;4;1.9;;;;;;;22.44;89.75488;98926.96;;;;
2021/06/05 10:54:09;;;;;;;6.4;2.7;;;;;;;22.97;89.83691;98916.47;;;;
2021/06/05 11:04:10;;;;;;;5.9;2.5;;;;;;;22.49;89.65918;98909.36;;;;
2021/06/05 11:14:10;;;;;;;5.1;3.3;;;;;;;22.95;84.9502;98902.3;;;;
2021/06/05 11:24:10;;;;;;;5.5;3.5;;;;;;;23.32;86.12988;98879.37;;;;
2021/06/05 11:34:10;;;;;;;6.1;2.9;;;;;;;23.62;88.10059;98865.38;;;;
2021/06/05 11:44:11;;;;;;;14.7;5.2;;;;;;;23.99;84.70508;98852.13;;;;
2021/06/05 11:54:13;;;;;;;7.2;3.4;;;;;;;24.63;83.79004;98850.27;;;;
2021/06/05 12:04:12;;;;;;;4.4;3.2;;;;;;;24.86;78.34961;98836.09;;;;
2021/06/05 12:14:17;;;;;;;5.6;3.3;;;;;;;25.22;74.04883;98847.84;;;;
2021/06/05 12:24:13;;;;;;;4.9;3.4;;;;;;;24.38;75.21582;98830.18;;;;
2021/06/05 12:34:13;;;;;;;4.5;2.8;;;;;;;24.05;78.00098;98807.29;;;;
2021/06/05 12:44:14;;;;;;;6.3;2.7;;;;;;;24.2;80.12109;98786.09;;;;
2021/06/05 12:54:14;;;;;;;7.1;4;;;;;;;23.92;79.80273;98770.3;;;;
2021/06/05 13:04:14;;;;;;;5.4;3.2;;;;;;;24.33;81.34082;98764.47;;;;
2021/06/05 13:14:15;;;;;;;5.4;3.2;;;;;;;24.63;79.16016;98755.77;;;;
2021/06/05 13:24:15;;;;;;;4.8;2.9;;;;;;;25.2;76.18164;98759.19;;;;
2021/06/05 13:34:16;;;;;;;6.7;3.9;;;;;;;25.55;75.2002;98736.95;;;;
2021/06/05 13:44:16;;;;;;;10.2;4.2;;;;;;;26.29;80.47852;98733.67;;;;
2021/06/05 13:54:17;;;;;;;5.5;3;;;;;;;26.52;72.48242;98738.58;;;;
2021/06/05 14:04:18;;;;;;;5.1;3.2;;;;;;;26.93;68.94629;98746.89;;;;
2021/06/05 14:14:20;;;;;;;5.2;3.8;;;;;;;28.16;68.22656;98729.8;;;;
2021/06/05 14:24:19;;;;;;;9.3;3.4;;;;;;;27.03;66.18848;98736.89;;;;
2021/06/05 14:34:20;;;;;;;5.2;2.6;;;;;;;21.88;73.80176;98742.44;;;;
2021/06/05 14:44:21;;;;;;;5;1.8;;;;;;;21.17;73.24512;98787.52;;;;
2021/06/05 14:54:21;;;;;;;3.4;1.9;;;;;;;20.22;78.15723;98782.15;;;;
2021/06/05 15:04:21;;;;;;;4.6;2;;;;;;;18.23;84.8252;98775.66;;;;
2021/06/05 15:14:21;;;;;;;12.7;2.2;;;;;;;18.19;87.78516;98770.11;;;;
2021/06/05 15:24:21;;;;;;;5.5;2.8;;;;;;;18.57;87.97363;98783.13;;;;
2021/06/05 15:34:21;;;;;;;7.7;4;;;;;;;22.25;81.64844;98794.58;;;;
2021/06/05 15:44:21;;;;;;;10.6;7.5;;;;;;;20.68;83.2207;98802.08;;;;
2021/06/05 15:54:21;;;;;;;6.5;4;;;;;;;20.93;86.68848;98799.7;;;;
2021/06/05 16:04:21;;;;;;;7.9;4.5;;;;;;;24.4;77.51465;98779;;;;
2021/06/05 16:14:22;;;;;;;10.6;6.7;;;;;;;26.53;70.46777;98765.04;;;;
2021/06/05 16:24:22;;;;;;;19.9;13.2;;;;;;;27.89;63.77148;98751.97;;;;
2021/06/05 16:34:23;;;;;;;5.7;3.2;;;;;;;28.36;64.70996;98759.14;;;;
2021/06/05 16:44:24;;;;;;;6.8;4.3;;;;;;;29.76;59.40527;98767.14;;;;
2021/06/05 16:54:25;;;;;;;7.1;4.4;;;;;;;30.06;57.66602;98769.64;;;;
2021/06/05 17:04:27;;;;;;;9.3;4.5;;;;;;;29.88;57.20508;98758.97;;;;
2021/06/05 17:14:28;;;;;;;4.6;3.2;;;;;;;26.89;63.20703;98746.14;;;;
2021/06/05 17:24:29;;;;;;;7.9;4.4;;;;;;;23.25;75.08594;98733.57;;;;
2021/06/05 17:34:30;;;;;;;6.3;4.3;;;;;;;24.09;72.9668;98735.7;;;;
2021/06/05 17:44:30;;;;;;;9.2;4;;;;;;;26.5;65.17383;98752.83;;;;
2021/06/05 17:54:31;;;;;;;5.9;4;;;;;;;27.06;62.12695;98764.52;;;;
2021/06/05 18:04:32;;;;;;;8.2;5;;;;;;;25.49;64.20801;98766.13;;;;
2021/06/05 18:14:33;;;;;;;9.6;6.5;;;;;;;22.38;76.31934;98762.9;;;;
2021/06/05 18:24:33;;;;;;;9.6;7.2;;;;;;;20.94;80.56934;98758.21;;;;
2021/06/05 18:34:34;;;;;;;9.9;8.1;;;;;;;19.63;85.62207;98774.47;;;;
2021/06/05 18:44:33;;;;;;;9.3;6.4;;;;;;;18.51;95.05566;98801.73;;;;
2021/06/05 18:54:33;;;;;;;8.7;6.9;;;;;;;17.62;97.64551;98799.8;;;;
2021/06/05 19:04:33;;;;;;;17.4;11.8;;;;;;;17;100;98807.38;;;;
2021/06/05 19:14:33;;;;;;;11.6;7.8;;;;;;;16.31;100;98820.34;;;;
2021/06/05 19:24:31;;;;;;;18.2;10.4;;;;;;;15.89;100;98834.09;;;;
2021/06/05 19:34:31;;;;;;;16.6;12.8;;;;;;;15.33;100;98818.45;;;;
2021/06/05 19:44:30;;;;;;;13.2;11.8;;;;;;;14.97;100;98848.91;;;;
2021/06/05 19:54:30;;;;;;;13.2;10.5;;;;;;;14.67;100;98842.71;;;;
2021/06/05 20:04:28;;;;;;;12.2;10.9;;;;;;;14.34;100;98852.59;;;;
2021/06/05 20:14:28;;;;;;;12.5;11.2;;;;;;;14.01;100;98861.3;;;;
2021/06/05 20:24:27;;;;;;;14.5;13;;;;;;;13.72;100;98858.47;;;;
2021/06/05 20:34:26;;;;;;;21.9;14.6;;;;;;;13.56;100;98865.52;;;;
2021/06/05 20:44:25;;;;;;;23.5;20.1;;;;;;;13.51;100;98849.41;;;;
2021/06/05 20:54:24;;;;;;;23.5;18;;;;;;;13.31;100;98858.98;;;;
2021/06/05 21:04:24;;;;;;;29.8;25.5;;;;;;;13.08;100;98862.92;;;;
2021/06/05 21:14:22;;;;;;;20.2;15.7;;;;;;;12.85;100;98847.91;;;;
2021/06/05 21:24:22;;;;;;;16.3;14.6;;;;;;;12.61;100;98854.55;;;;
2021/06/05 21:34:20;;;;;;;20.5;17.2;;;;;;;12.51;100;98854.03;;;;
2021/06/05 21:44:19;;;;;;;23.2;19.5;;;;;;;12.34;100;98854.78;;;;
2021/06/05 21:54:18;;;;;;;19.1;16.5;;;;;;;12.38;100;98850.34;;;;
2021/06/05 22:04:16;;;;;;;18.5;16.6;;;;;;;12.2;100;98855.98;;;;
2021/06/05 22:14:15;;;;;;;17.2;15.3;;;;;;;12.06;100;98867.69;;;;
2021/06/05 22:24:14;;;;;;;15.5;13.9;;;;;;;11.97;100;98856.05;;;;
2021/06/05 22:34:13;;;;;;;14.1;11.6;;;;;;;11.87;100;98853.58;;;;
2021/06/05 22:44:12;;;;;;;16.5;13.7;;;;;;;11.71;100;98848.88;;;;
2021/06/05 22:54:11;;;;;;;19.2;14.5;;;;;;;11.63;100;98844.2;;;;
2021/06/05 23:04:10;;;;;;;14.4;12.1;;;;;;;11.46;100;98839.46;;;;
2021/06/05 23:14:08;;;;;;;14.1;12.4;;;;;;;11.34;100;98847.33;;;;
2021/06/05 23:24:07;;;;;;;15.2;13.4;;;;;;;11.26;100;98838.05;;;;
2021/06/05 23:34:06;;;;;;;16.2;12.7;;;;;;;11.23;100;98841.37;;;;
2021/06/05 23:44:04;;;;;;;17.2;14.2;;;;;;;11.11;100;98841.09;;;;
2021/06/05 23:54:03;;;;;;;16.6;13.2;;;;;;;11.04;100;98822.63;;;;
